sensor_id;sensor_type;location;lat;lon;timestamp;temperature;humidity
36186;DHT22;22228;53.222;7.446;2023-06-19T00:00:33;21.60;99.90
36186;DHT22;22228;53.222;7.446;2023-06-19T00:02:53;21.60;99.90
36186;DHT22;22228;53.222;7.446;2023-06-19T00:05:14;21.60;99.90
36186;DHT22;22228;53.222;7.446;2023-06-19T00:07:35;21.60;99.90
36186;DHT22;22228;53.222;7.446;2023-06-19T00:09:56;21.60;99.90
36186;DHT22;22228;53.222;7.446;2023-06-19T00:12:16;21.60;99.90
36186;DHT22;22228;53.222;7.446;2023-06-19T00:14:38;21.60;99.90
36186;DHT22;22228;53.222;7.446;2023-06-19T03:02:53;20.70;98.00
36186;DHT22;22228;53.222;7.446;2023-06-19T03:05:14;20.70;69.10
36186;DHT22;22228;53.222;7.446;2023-06-19T03:07:35;20.70;1.00
36186;DHT22;22228;53.222;7.446;2023-06-19T03:09:55;20.70;1.00
36186;DHT22;22228;53.222;7.446;2023-06-19T03:12:16;20.70;1.00
36186;DHT22;22228;53.222;7.446;2023-06-19T03:14:36;20.70;1.00
36186;DHT22;22228;53.222;7.446;2023-06-19T03:16:57;20.60;1.00
36186;DHT22;22228;53.222;7.446;2023-06-19T03:19:19;20.60;1.00
36186;DHT22;22228;53.222;7.446;2023-06-19T03:21:40;20.50;1.00
36186;DHT22;22228;53.222;7.446;2023-06-19T03:24:01;20.50;1.00
36186;DHT22;22228;53.222;7.446;2023-06-19T03:26:23;20.40;1.00
36186;DHT22;22228;53.222;7.446;2023-06-19T03:28:45;20.40;1.00
36186;DHT22;22228;53.222;7.446;2023-06-19T03:31:07;20.40;1.00
36186;DHT22;22228;53.222;7.446;2023-06-19T03:33:27;20.40;1.00
36186;DHT22;22228;53.222;7.446;2023-06-19T03:35:49;20.40;1.00
36186;DHT22;22228;53.222;7.446;2023-06-19T03:38:22;20.40;1.00
36186;DHT22;22228;53.222;7.446;2023-06-19T03:40:44;20.40;1.00
36186;DHT22;22228;53.222;7.446;2023-06-19T03:43:05;20.40;1.00
36186;DHT22;22228;53.222;7.446;2023-06-19T03:45:26;20.40;1.00
36186;DHT22;22228;53.222;7.446;2023-06-19T03:47:46;20.40;1.00
36186;DHT22;22228;53.222;7.446;2023-06-19T03:50:08;20.40;1.00
36186;DHT22;22228;53.222;7.446;2023-06-19T03:52:30;20.40;1.00
36186;DHT22;22228;53.222;7.446;2023-06-19T03:54:50;20.50;1.00
36186;DHT22;22228;53.222;7.446;2023-06-19T03:57:12;20.50;1.00
36186;DHT22;22228;53.222;7.446;2023-06-19T03:59:32;20.60;1.00
36186;DHT22;22228;53.222;7.446;2023-06-19T04:01:53;20.60;1.00
36186;DHT22;22228;53.222;7.446;2023-06-19T04:04:13;20.60;1.00
36186;DHT22;22228;53.222;7.446;2023-06-19T04:06:34;20.70;1.00
36186;DHT22;22228;53.222;7.446;2023-06-19T04:08:56;20.70;1.00
36186;DHT22;22228;53.222;7.446;2023-06-19T04:11:16;20.70;1.00
36186;DHT22;22228;53.222;7.446;2023-06-19T04:13:38;20.60;1.00
36186;DHT22;22228;53.222;7.446;2023-06-19T04:15:58;20.70;1.00
36186;DHT22;22228;53.222;7.446;2023-06-19T04:18:20;20.70;1.00
36186;DHT22;22228;53.222;7.446;2023-06-19T04:20:41;20.70;1.00
36186;DHT22;22228;53.222;7.446;2023-06-19T04:23:01;20.70;1.00
36186;DHT22;22228;53.222;7.446;2023-06-19T04:25:23;20.70;1.00
36186;DHT22;22228;53.222;7.446;2023-06-19T04:27:45;20.70;23.20
36186;DHT22;22228;53.222;7.446;2023-06-19T04:30:06;20.70;38.80
36186;DHT22;22228;53.222;7.446;2023-06-19T04:32:27;20.70;87.30
36186;DHT22;22228;53.222;7.446;2023-06-19T04:34:48;20.70;99.90
36186;DHT22;22228;53.222;7.446;2023-06-19T04:37:09;20.70;99.90
36186;DHT22;22228;53.222;7.446;2023-06-19T04:39:29;20.70;99.90
36186;DHT22;22228;53.222;7.446;2023-06-19T04:41:51;20.80;99.90
36186;DHT22;22228;53.222;7.446;2023-06-19T04:44:11;20.80;99.90
36186;DHT22;22228;53.222;7.446;2023-06-19T04:46:32;20.90;99.90
36186;DHT22;22228;53.222;7.446;2023-06-19T04:48:52;20.90;99.90
36186;DHT22;22228;53.222;7.446;2023-06-19T04:51:13;21.00;99.90
36186;DHT22;22228;53.222;7.446;2023-06-19T04:53:33;21.00;99.90
36186;DHT22;22228;53.222;7.446;2023-06-19T04:55:54;21.10;99.90
36186;DHT22;22228;53.222;7.446;2023-06-19T04:58:16;21.10;99.90
36186;DHT22;22228;53.222;7.446;2023-06-19T05:00:36;21.20;99.90
36186;DHT22;22228;53.222;7.446;2023-06-19T05:02:57;21.20;99.90
36186;DHT22;22228;53.222;7.446;2023-06-19T05:05:19;21.30;1.00
36186;DHT22;22228;53.222;7.446;2023-06-19T05:07:40;21.30;1.00
36186;DHT22;22228;53.222;7.446;2023-06-19T05:10:00;21.40;1.00
36186;DHT22;22228;53.222;7.446;2023-06-19T05:12:21;21.40;1.00
36186;DHT22;22228;53.222;7.446;2023-06-19T05:14:43;21.40;1.00
36186;DHT22;22228;53.222;7.446;2023-06-19T05:17:03;21.50;1.00
36186;DHT22;22228;53.222;7.446;2023-06-19T05:19:24;21.50;1.00
36186;DHT22;22228;53.222;7.446;2023-06-19T05:21:44;21.50;1.00
36186;DHT22;22228;53.222;7.446;2023-06-19T05:24:05;21.60;1.00
36186;DHT22;22228;53.222;7.446;2023-06-19T05:26:25;21.70;1.00
36186;DHT22;22228;53.222;7.446;2023-06-19T05:28:45;21.80;1.00
36186;DHT22;22228;53.222;7.446;2023-06-19T05:31:07;21.80;1.00
36186;DHT22;22228;53.222;7.446;2023-06-19T05:33:28;21.90;1.00
36186;DHT22;22228;53.222;7.446;2023-06-19T05:35:48;22.00;1.00
36186;DHT22;22228;53.222;7.446;2023-06-19T05:38:11;22.10;1.00
36186;DHT22;22228;53.222;7.446;2023-06-19T05:40:31;22.10;1.00
36186;DHT22;22228;53.222;7.446;2023-06-19T05:42:52;22.20;99.90
36186;DHT22;22228;53.222;7.446;2023-06-19T05:45:14;22.20;1.00
36186;DHT22;22228;53.222;7.446;2023-06-19T05:47:36;22.30;1.00
36186;DHT22;22228;53.222;7.446;2023-06-19T05:49:57;22.40;99.90
36186;DHT22;22228;53.222;7.446;2023-06-19T05:52:18;22.50;99.90
36186;DHT22;22228;53.222;7.446;2023-06-19T05:54:39;22.50;99.90
36186;DHT22;22228;53.222;7.446;2023-06-19T05:56:59;22.60;99.90
36186;DHT22;22228;53.222;7.446;2023-06-19T05:59:20;22.60;99.90
36186;DHT22;22228;53.222;7.446;2023-06-19T06:01:40;22.70;99.90
36186;DHT22;22228;53.222;7.446;2023-06-19T06:04:02;22.80;99.90
36186;DHT22;22228;53.222;7.446;2023-06-19T06:06:24;22.90;99.90
36186;DHT22;22228;53.222;7.446;2023-06-19T06:08:45;22.90;77.50
36186;DHT22;22228;53.222;7.446;2023-06-19T06:11:05;22.90;99.90
36186;DHT22;22228;53.222;7.446;2023-06-19T06:13:26;22.80;99.90
36186;DHT22;22228;53.222;7.446;2023-06-19T06:15:46;22.80;99.90
36186;DHT22;22228;53.222;7.446;2023-06-19T06:18:07;22.80;99.90
36186;DHT22;22228;53.222;7.446;2023-06-19T06:20:29;22.90;99.90
36186;DHT22;22228;53.222;7.446;2023-06-19T06:22:49;23.00;99.90
36186;DHT22;22228;53.222;7.446;2023-06-19T06:25:10;23.00;99.90
36186;DHT22;22228;53.222;7.446;2023-06-19T06:27:30;23.10;99.90
36186;DHT22;22228;53.222;7.446;2023-06-19T06:29:51;23.20;99.90
36186;DHT22;22228;53.222;7.446;2023-06-19T06:32:11;23.20;99.90
36186;DHT22;22228;53.222;7.446;2023-06-19T06:34:32;23.30;99.90
36186;DHT22;22228;53.222;7.446;2023-06-19T06:36:54;23.30;96.30
36186;DHT22;22228;53.222;7.446;2023-06-19T06:39:14;23.20;99.90
36186;DHT22;22228;53.222;7.446;2023-06-19T06:41:35;23.20;99.90
36186;DHT22;22228;53.222;7.446;2023-06-19T06:43:58;23.30;99.90
36186;DHT22;22228;53.222;7.446;2023-06-19T06:46:18;23.30;99.90
36186;DHT22;22228;53.222;7.446;2023-06-19T06:48:39;23.40;99.90
36186;DHT22;22228;53.222;7.446;2023-06-19T06:51:00;23.40;99.90
36186;DHT22;22228;53.222;7.446;2023-06-19T06:53:21;23.50;1.00
36186;DHT22;22228;53.222;7.446;2023-06-19T06:55:42;23.40;1.00
36186;DHT22;22228;53.222;7.446;2023-06-19T06:58:02;23.40;1.00
36186;DHT22;22228;53.222;7.446;2023-06-19T07:00:24;23.30;1.00
36186;DHT22;22228;53.222;7.446;2023-06-19T07:02:44;23.30;1.00
36186;DHT22;22228;53.222;7.446;2023-06-19T07:05:08;23.40;1.00
36186;DHT22;22228;53.222;7.446;2023-06-19T07:07:28;23.50;1.00
36186;DHT22;22228;53.222;7.446;2023-06-19T07:09:50;23.60;1.00
36186;DHT22;22228;53.222;7.446;2023-06-19T07:12:10;23.70;1.00
36186;DHT22;22228;53.222;7.446;2023-06-19T07:14:31;23.70;1.00
36186;DHT22;22228;53.222;7.446;2023-06-19T07:16:51;23.80;1.00
36186;DHT22;22228;53.222;7.446;2023-06-19T07:19:12;23.90;1.00
36186;DHT22;22228;53.222;7.446;2023-06-19T07:21:32;24.00;1.00
36186;DHT22;22228;53.222;7.446;2023-06-19T07:23:53;24.00;1.00
36186;DHT22;22228;53.222;7.446;2023-06-19T07:26:27;24.00;99.90
36186;DHT22;22228;53.222;7.446;2023-06-19T07:28:47;24.00;1.00
36186;DHT22;22228;53.222;7.446;2023-06-19T07:31:08;24.00;99.90
36186;DHT22;22228;53.222;7.446;2023-06-19T07:33:28;23.80;1.00
36186;DHT22;22228;53.222;7.446;2023-06-19T07:35:49;23.80;1.00
36186;DHT22;22228;53.222;7.446;2023-06-19T07:38:10;23.70;1.00
36186;DHT22;22228;53.222;7.446;2023-06-19T07:40:30;23.50;1.00
36186;DHT22;22228;53.222;7.446;2023-06-19T07:42:52;23.50;1.00
36186;DHT22;22228;53.222;7.446;2023-06-19T07:45:13;23.50;94.40
36186;DHT22;22228;53.222;7.446;2023-06-19T07:47:33;23.40;99.90
36186;DHT22;22228;53.222;7.446;2023-06-19T07:49:54;23.50;99.90
36186;DHT22;22228;53.222;7.446;2023-06-19T07:52:14;23.50;99.90
36186;DHT22;22228;53.222;7.446;2023-06-19T07:54:35;23.30;99.90
36186;DHT22;22228;53.222;7.446;2023-06-19T07:56:55;23.30;99.90
36186;DHT22;22228;53.222;7.446;2023-06-19T07:59:16;23.30;99.90
36186;DHT22;22228;53.222;7.446;2023-06-19T08:01:37;23.20;1.00
36186;DHT22;22228;53.222;7.446;2023-06-19T08:03:57;23.10;1.00
36186;DHT22;22228;53.222;7.446;2023-06-19T08:06:17;23.10;1.00
36186;DHT22;22228;53.222;7.446;2023-06-19T08:08:38;23.00;1.00
36186;DHT22;22228;53.222;7.446;2023-06-19T08:10:58;22.90;1.00
36186;DHT22;22228;53.222;7.446;2023-06-19T08:13:19;22.80;90.00
36186;DHT22;22228;53.222;7.446;2023-06-19T08:15:41;22.80;99.90
36186;DHT22;22228;53.222;7.446;2023-06-19T08:18:02;22.70;99.90
36186;DHT22;22228;53.222;7.446;2023-06-19T08:20:23;22.70;99.90
36186;DHT22;22228;53.222;7.446;2023-06-19T08:22:43;22.70;99.90
36186;DHT22;22228;53.222;7.446;2023-06-19T08:25:05;22.60;1.00
36186;DHT22;22228;53.222;7.446;2023-06-19T08:27:25;22.60;1.00
36186;DHT22;22228;53.222;7.446;2023-06-19T08:29:46;22.50;1.00
36186;DHT22;22228;53.222;7.446;2023-06-19T08:32:08;22.50;99.90
36186;DHT22;22228;53.222;7.446;2023-06-19T08:34:28;22.50;99.90
36186;DHT22;22228;53.222;7.446;2023-06-19T08:36:49;22.40;1.00
36186;DHT22;22228;53.222;7.446;2023-06-19T08:39:09;22.40;1.00
36186;DHT22;22228;53.222;7.446;2023-06-19T08:41:30;22.40;1.00
36186;DHT22;22228;53.222;7.446;2023-06-19T08:43:50;22.40;1.00
36186;DHT22;22228;53.222;7.446;2023-06-19T08:46:12;22.40;1.00
36186;DHT22;22228;53.222;7.446;2023-06-19T08:48:35;22.30;1.00
36186;DHT22;22228;53.222;7.446;2023-06-19T08:50:56;22.30;1.00
36186;DHT22;22228;53.222;7.446;2023-06-19T08:53:17;22.30;99.90
36186;DHT22;22228;53.222;7.446;2023-06-19T08:55:37;22.20;1.00
36186;DHT22;22228;53.222;7.446;2023-06-19T08:57:58;22.30;1.00
36186;DHT22;22228;53.222;7.446;2023-06-19T09:00:26;22.50;99.90
36186;DHT22;22228;53.222;7.446;2023-06-19T09:02:47;22.50;1.00
36186;DHT22;22228;53.222;7.446;2023-06-19T09:05:15;22.50;48.00
36186;DHT22;22228;53.222;7.446;2023-06-19T09:07:35;22.50;8.10
36186;DHT22;22228;53.222;7.446;2023-06-19T09:09:56;22.50;37.60
36186;DHT22;22228;53.222;7.446;2023-06-19T09:12:17;22.50;1.00
36186;DHT22;22228;53.222;7.446;2023-06-19T09:14:45;22.40;1.00
36186;DHT22;22228;53.222;7.446;2023-06-19T09:17:07;22.30;98.80
36186;DHT22;22228;53.222;7.446;2023-06-19T09:19:27;22.30;99.90
36186;DHT22;22228;53.222;7.446;2023-06-19T09:21:49;22.30;94.70
36186;DHT22;22228;53.222;7.446;2023-06-19T09:24:11;22.30;99.90
36186;DHT22;22228;53.222;7.446;2023-06-19T09:26:32;22.20;99.90
36186;DHT22;22228;53.222;7.446;2023-06-19T09:28:53;22.20;9.00
36186;DHT22;22228;53.222;7.446;2023-06-19T09:31:13;22.20;1.00
36186;DHT22;22228;53.222;7.446;2023-06-19T09:33:34;22.20;1.00
36186;DHT22;22228;53.222;7.446;2023-06-19T09:35:56;22.20;1.00
36186;DHT22;22228;53.222;7.446;2023-06-19T09:38:18;22.20;99.90
36186;DHT22;22228;53.222;7.446;2023-06-19T09:40:40;22.20;1.00
36186;DHT22;22228;53.222;7.446;2023-06-19T09:43:02;22.10;1.00
36186;DHT22;22228;53.222;7.446;2023-06-19T09:45:26;22.00;99.90
36186;DHT22;22228;53.222;7.446;2023-06-19T09:47:52;21.90;99.90
36186;DHT22;22228;53.222;7.446;2023-06-19T09:50:13;21.90;1.00
36186;DHT22;22228;53.222;7.446;2023-06-19T09:52:34;21.90;1.00
36186;DHT22;22228;53.222;7.446;2023-06-19T09:55:02;21.90;1.00
36186;DHT22;22228;53.222;7.446;2023-06-19T09:57:23;22.10;99.90
36186;DHT22;22228;53.222;7.446;2023-06-19T09:59:46;22.20;1.00
36186;DHT22;22228;53.222;7.446;2023-06-19T10:02:09;22.40;99.90
36186;DHT22;22228;53.222;7.446;2023-06-19T10:04:30;22.50;1.00
36186;DHT22;22228;53.222;7.446;2023-06-19T10:06:50;22.70;1.00
36186;DHT22;22228;53.222;7.446;2023-06-19T10:09:11;22.70;99.90
36186;DHT22;22228;53.222;7.446;2023-06-19T10:11:45;22.70;1.00
36186;DHT22;22228;53.222;7.446;2023-06-19T10:14:06;22.50;1.00
36186;DHT22;22228;53.222;7.446;2023-06-19T10:16:28;22.50;99.90
36186;DHT22;22228;53.222;7.446;2023-06-19T10:18:50;22.60;99.90
36186;DHT22;22228;53.222;7.446;2023-06-19T10:21:16;22.60;99.90
36186;DHT22;22228;53.222;7.446;2023-06-19T10:23:36;22.80;99.90
36186;DHT22;22228;53.222;7.446;2023-06-19T10:25:59;23.00;99.90
36186;DHT22;22228;53.222;7.446;2023-06-19T10:28:23;23.40;8.30
36186;DHT22;22228;53.222;7.446;2023-06-19T10:30:43;23.50;1.00
36186;DHT22;22228;53.222;7.446;2023-06-19T10:33:04;23.50;1.00
36186;DHT22;22228;53.222;7.446;2023-06-19T10:35:24;23.50;1.00
36186;DHT22;22228;53.222;7.446;2023-06-19T10:37:45;23.70;1.00
36186;DHT22;22228;53.222;7.446;2023-06-19T10:40:06;23.50;1.00
36186;DHT22;22228;53.222;7.446;2023-06-19T10:42:29;23.30;1.00
36186;DHT22;22228;53.222;7.446;2023-06-19T10:44:51;23.40;1.00
36186;DHT22;22228;53.222;7.446;2023-06-19T10:47:11;23.50;1.00
36186;DHT22;22228;53.222;7.446;2023-06-19T10:49:32;23.60;99.90
36186;DHT22;22228;53.222;7.446;2023-06-19T10:51:55;23.60;99.90
36186;DHT22;22228;53.222;7.446;2023-06-19T10:54:19;23.90;99.90
36186;DHT22;22228;53.222;7.446;2023-06-19T10:56:39;24.30;99.90
36186;DHT22;22228;53.222;7.446;2023-06-19T10:59:01;24.60;99.90
36186;DHT22;22228;53.222;7.446;2023-06-19T11:01:22;24.80;17.90
36186;DHT22;22228;53.222;7.446;2023-06-19T11:03:43;24.70;1.00
36186;DHT22;22228;53.222;7.446;2023-06-19T11:06:03;24.80;1.00
36186;DHT22;22228;53.222;7.446;2023-06-19T11:08:24;24.70;1.00
36186;DHT22;22228;53.222;7.446;2023-06-19T11:10:45;24.50;1.00
36186;DHT22;22228;53.222;7.446;2023-06-19T11:13:05;24.40;1.00
36186;DHT22;22228;53.222;7.446;2023-06-19T11:15:29;24.30;1.00
36186;DHT22;22228;53.222;7.446;2023-06-19T11:17:51;24.30;1.00
36186;DHT22;22228;53.222;7.446;2023-06-19T11:20:12;24.30;1.00
36186;DHT22;22228;53.222;7.446;2023-06-19T11:22:38;24.40;1.00
36186;DHT22;22228;53.222;7.446;2023-06-19T11:25:02;24.30;1.00
36186;DHT22;22228;53.222;7.446;2023-06-19T11:27:22;24.50;1.00
36186;DHT22;22228;53.222;7.446;2023-06-19T11:29:46;24.70;1.00
36186;DHT22;22228;53.222;7.446;2023-06-19T11:32:08;24.70;1.00
36186;DHT22;22228;53.222;7.446;2023-06-19T11:34:34;25.00;1.00
36186;DHT22;22228;53.222;7.446;2023-06-19T11:36:55;25.40;1.00
36186;DHT22;22228;53.222;7.446;2023-06-19T11:39:16;25.80;1.00
36186;DHT22;22228;53.222;7.446;2023-06-19T11:41:37;25.80;99.90
36186;DHT22;22228;53.222;7.446;2023-06-19T11:43:58;26.00;99.90
36186;DHT22;22228;53.222;7.446;2023-06-19T11:46:19;25.60;99.90
36186;DHT22;22228;53.222;7.446;2023-06-19T11:48:41;25.60;99.90
36186;DHT22;22228;53.222;7.446;2023-06-19T11:51:03;25.10;99.90
36186;DHT22;22228;53.222;7.446;2023-06-19T11:53:24;25.00;99.90
36186;DHT22;22228;53.222;7.446;2023-06-19T11:55:44;25.50;99.90
36186;DHT22;22228;53.222;7.446;2023-06-19T11:58:05;24.90;99.90
36186;DHT22;22228;53.222;7.446;2023-06-19T12:00:25;24.90;99.90
36186;DHT22;22228;53.222;7.446;2023-06-19T12:02:46;25.10;99.90
36186;DHT22;22228;53.222;7.446;2023-06-19T12:05:07;25.40;99.90
36186;DHT22;22228;53.222;7.446;2023-06-19T12:07:29;25.50;99.90
36186;DHT22;22228;53.222;7.446;2023-06-19T12:09:50;25.20;99.90
36186;DHT22;22228;53.222;7.446;2023-06-19T12:12:11;25.00;99.90
36186;DHT22;22228;53.222;7.446;2023-06-19T12:14:31;25.30;99.90
36186;DHT22;22228;53.222;7.446;2023-06-19T12:16:52;25.80;99.90
36186;DHT22;22228;53.222;7.446;2023-06-19T12:19:12;26.30;99.90
36186;DHT22;22228;53.222;7.446;2023-06-19T12:21:32;26.50;99.90
36186;DHT22;22228;53.222;7.446;2023-06-19T12:23:54;26.70;1.00
36186;DHT22;22228;53.222;7.446;2023-06-19T12:26:15;26.60;1.00
36186;DHT22;22228;53.222;7.446;2023-06-19T12:28:35;26.10;1.00
36186;DHT22;22228;53.222;7.446;2023-06-19T12:30:56;26.00;1.00
36186;DHT22;22228;53.222;7.446;2023-06-19T12:33:17;26.80;1.00
36186;DHT22;22228;53.222;7.446;2023-06-19T12:35:40;27.00;1.00
36186;DHT22;22228;53.222;7.446;2023-06-19T12:38:01;27.10;99.90
36186;DHT22;22228;53.222;7.446;2023-06-19T12:40:22;26.90;88.90
36186;DHT22;22228;53.222;7.446;2023-06-19T12:42:43;26.90;74.30
36186;DHT22;22228;53.222;7.446;2023-06-19T12:45:04;27.00;99.90
36186;DHT22;22228;53.222;7.446;2023-06-19T12:47:25;26.90;99.90
36186;DHT22;22228;53.222;7.446;2023-06-19T12:49:45;26.50;99.90
36186;DHT22;22228;53.222;7.446;2023-06-19T12:52:06;26.30;99.90
36186;DHT22;22228;53.222;7.446;2023-06-19T12:54:27;26.60;99.90
36186;DHT22;22228;53.222;7.446;2023-06-19T12:56:49;26.90;99.90
36186;DHT22;22228;53.222;7.446;2023-06-19T12:59:10;26.70;99.90
36186;DHT22;22228;53.222;7.446;2023-06-19T13:01:30;26.70;99.90
36186;DHT22;22228;53.222;7.446;2023-06-19T13:03:51;27.30;99.90
36186;DHT22;22228;53.222;7.446;2023-06-19T13:06:11;27.10;99.90
36186;DHT22;22228;53.222;7.446;2023-06-19T13:08:32;27.50;99.90
36186;DHT22;22228;53.222;7.446;2023-06-19T13:10:53;27.50;99.90
36186;DHT22;22228;53.222;7.446;2023-06-19T13:13:15;27.80;99.90
36186;DHT22;22228;53.222;7.446;2023-06-19T13:15:35;27.30;99.90
36186;DHT22;22228;53.222;7.446;2023-06-19T13:17:56;26.90;99.90
36186;DHT22;22228;53.222;7.446;2023-06-19T13:20:16;26.90;99.90
36186;DHT22;22228;53.222;7.446;2023-06-19T13:22:37;27.20;99.90
36186;DHT22;22228;53.222;7.446;2023-06-19T13:24:57;26.90;99.90
36186;DHT22;22228;53.222;7.446;2023-06-19T13:27:18;26.80;99.90
36186;DHT22;22228;53.222;7.446;2023-06-19T13:29:40;27.10;99.90
36186;DHT22;22228;53.222;7.446;2023-06-19T13:32:00;26.90;99.90
36186;DHT22;22228;53.222;7.446;2023-06-19T13:34:21;26.80;99.90
36186;DHT22;22228;53.222;7.446;2023-06-19T13:36:41;26.90;99.90
36186;DHT22;22228;53.222;7.446;2023-06-19T13:39:02;26.90;99.90
36186;DHT22;22228;53.222;7.446;2023-06-19T13:41:23;26.90;99.90
36186;DHT22;22228;53.222;7.446;2023-06-19T13:43:44;27.40;99.90
36186;DHT22;22228;53.222;7.446;2023-06-19T13:46:08;27.90;99.90
36186;DHT22;22228;53.222;7.446;2023-06-19T13:48:28;28.10;99.90
36186;DHT22;22228;53.222;7.446;2023-06-19T13:50:48;28.40;99.90
36186;DHT22;22228;53.222;7.446;2023-06-19T13:53:09;28.20;99.90
36186;DHT22;22228;53.222;7.446;2023-06-19T13:55:29;28.10;99.90
36186;DHT22;22228;53.222;7.446;2023-06-19T13:57:50;28.00;89.30
36186;DHT22;22228;53.222;7.446;2023-06-19T14:00:12;28.40;99.90
36186;DHT22;22228;53.222;7.446;2023-06-19T14:02:34;28.30;94.70
36186;DHT22;22228;53.222;7.446;2023-06-19T14:04:54;28.40;99.90
36186;DHT22;22228;53.222;7.446;2023-06-19T14:07:16;27.70;72.90
36186;DHT22;22228;53.222;7.446;2023-06-19T14:09:37;28.00;91.10
36186;DHT22;22228;53.222;7.446;2023-06-19T14:11:58;28.00;99.90
36186;DHT22;22228;53.222;7.446;2023-06-19T14:14:18;27.20;93.80
36186;DHT22;22228;53.222;7.446;2023-06-19T14:16:39;27.90;99.90
36186;DHT22;22228;53.222;7.446;2023-06-19T14:19:00;28.40;99.90
36186;DHT22;22228;53.222;7.446;2023-06-19T14:21:22;29.00;35.40
36186;DHT22;22228;53.222;7.446;2023-06-19T14:23:42;29.40;96.80
36186;DHT22;22228;53.222;7.446;2023-06-19T14:26:03;29.40;23.80
36186;DHT22;22228;53.222;7.446;2023-06-19T14:28:24;29.60;99.90
36186;DHT22;22228;53.222;7.446;2023-06-19T14:30:45;29.50;94.80
36186;DHT22;22228;53.222;7.446;2023-06-19T14:33:05;29.70;31.60
36186;DHT22;22228;53.222;7.446;2023-06-19T14:35:30;30.00;46.20
36186;DHT22;22228;53.222;7.446;2023-06-19T14:37:51;30.30;4.30
36186;DHT22;22228;53.222;7.446;2023-06-19T14:40:11;30.20;35.10
36186;DHT22;22228;53.222;7.446;2023-06-19T14:42:32;30.30;42.00
36186;DHT22;22228;53.222;7.446;2023-06-19T14:44:52;30.50;99.90
36186;DHT22;22228;53.222;7.446;2023-06-19T14:47:13;30.90;82.10
36186;DHT22;22228;53.222;7.446;2023-06-19T14:49:33;31.10;99.90
36186;DHT22;22228;53.222;7.446;2023-06-19T14:51:55;30.60;89.90
36186;DHT22;22228;53.222;7.446;2023-06-19T14:54:16;29.80;99.90
36186;DHT22;22228;53.222;7.446;2023-06-19T14:56:36;29.60;91.60
36186;DHT22;22228;53.222;7.446;2023-06-19T14:58:57;28.80;98.90
36186;DHT22;22228;53.222;7.446;2023-06-19T15:01:17;28.70;99.90
36186;DHT22;22228;53.222;7.446;2023-06-19T15:03:38;28.10;93.50
36186;DHT22;22228;53.222;7.446;2023-06-19T15:05:59;28.00;99.90
36186;DHT22;22228;53.222;7.446;2023-06-19T15:08:21;27.90;94.90
36186;DHT22;22228;53.222;7.446;2023-06-19T15:10:43;27.60;96.80
36186;DHT22;22228;53.222;7.446;2023-06-19T15:13:04;27.00;99.90
36186;DHT22;22228;53.222;7.446;2023-06-19T15:15:24;26.70;45.80
36186;DHT22;22228;53.222;7.446;2023-06-19T15:17:45;26.70;29.50
36186;DHT22;22228;53.222;7.446;2023-06-19T15:20:07;26.70;75.60
36186;DHT22;22228;53.222;7.446;2023-06-19T15:22:28;26.60;91.50
36186;DHT22;22228;53.222;7.446;2023-06-19T15:24:50;26.30;43.70
36186;DHT22;22228;53.222;7.446;2023-06-19T15:27:10;26.20;99.90
36186;DHT22;22228;53.222;7.446;2023-06-19T15:29:30;26.50;99.90
36186;DHT22;22228;53.222;7.446;2023-06-19T15:31:51;26.90;99.90
36186;DHT22;22228;53.222;7.446;2023-06-19T15:34:11;27.30;72.10
36186;DHT22;22228;53.222;7.446;2023-06-19T15:36:32;27.90;99.90
36186;DHT22;22228;53.222;7.446;2023-06-19T15:38:52;28.30;99.90
36186;DHT22;22228;53.222;7.446;2023-06-19T15:41:14;27.90;99.90
36186;DHT22;22228;53.222;7.446;2023-06-19T15:43:34;27.40;99.90
36186;DHT22;22228;53.222;7.446;2023-06-19T15:45:55;27.30;99.90
36186;DHT22;22228;53.222;7.446;2023-06-19T15:48:15;27.20;99.90
36186;DHT22;22228;53.222;7.446;2023-06-19T15:50:36;28.10;69.80
36186;DHT22;22228;53.222;7.446;2023-06-19T15:52:56;29.10;99.90
36186;DHT22;22228;53.222;7.446;2023-06-19T15:55:17;28.60;99.90
36186;DHT22;22228;53.222;7.446;2023-06-19T15:57:38;28.60;96.40
36186;DHT22;22228;53.222;7.446;2023-06-19T15:59:59;28.70;57.00
36186;DHT22;22228;53.222;7.446;2023-06-19T16:02:19;29.00;73.50
36186;DHT22;22228;53.222;7.446;2023-06-19T16:04:40;29.00;99.90
36186;DHT22;22228;53.222;7.446;2023-06-19T16:07:00;29.20;26.20
36186;DHT22;22228;53.222;7.446;2023-06-19T16:09:21;29.30;15.80
36186;DHT22;22228;53.222;7.446;2023-06-19T16:11:42;28.70;30.10
36186;DHT22;22228;53.222;7.446;2023-06-19T16:14:03;28.20;58.20
36186;DHT22;22228;53.222;7.446;2023-06-19T16:16:24;27.60;27.00
36186;DHT22;22228;53.222;7.446;2023-06-19T16:18:44;27.90;91.70
36186;DHT22;22228;53.222;7.446;2023-06-19T16:21:05;28.60;46.80
36186;DHT22;22228;53.222;7.446;2023-06-19T16:23:25;28.80;9.40
36186;DHT22;22228;53.222;7.446;2023-06-19T16:25:46;29.40;1.00
36186;DHT22;22228;53.222;7.446;2023-06-19T16:28:06;29.50;51.80
36186;DHT22;22228;53.222;7.446;2023-06-19T16:30:28;29.00;11.40
36186;DHT22;22228;53.222;7.446;2023-06-19T16:32:49;29.20;36.00
36186;DHT22;22228;53.222;7.446;2023-06-19T16:35:09;29.40;64.00
36186;DHT22;22228;53.222;7.446;2023-06-19T16:37:29;29.50;42.70
36186;DHT22;22228;53.222;7.446;2023-06-19T16:39:50;29.10;99.90
36186;DHT22;22228;53.222;7.446;2023-06-19T16:42:10;28.50;30.90
36186;DHT22;22228;53.222;7.446;2023-06-19T16:44:31;28.30;98.70
36186;DHT22;22228;53.222;7.446;2023-06-19T16:46:53;28.30;10.70
36186;DHT22;22228;53.222;7.446;2023-06-19T16:49:13;28.90;81.00
36186;DHT22;22228;53.222;7.446;2023-06-19T16:51:33;29.30;87.60
36186;DHT22;22228;53.222;7.446;2023-06-19T16:53:54;29.00;99.90
36186;DHT22;22228;53.222;7.446;2023-06-19T16:56:14;29.30;99.90
36186;DHT22;22228;53.222;7.446;2023-06-19T16:58:35;29.80;92.90
36186;DHT22;22228;53.222;7.446;2023-06-19T17:00:56;30.40;27.30
36186;DHT22;22228;53.222;7.446;2023-06-19T17:03:17;30.40;93.00
36186;DHT22;22228;53.222;7.446;2023-06-19T17:05:38;30.00;49.00
36186;DHT22;22228;53.222;7.446;2023-06-19T17:07:58;28.80;1.00
36186;DHT22;22228;53.222;7.446;2023-06-19T17:10:19;27.70;27.10
36186;DHT22;22228;53.222;7.446;2023-06-19T17:12:41;26.90;19.80
36186;DHT22;22228;53.222;7.446;2023-06-19T17:15:02;26.50;37.80
36186;DHT22;22228;53.222;7.446;2023-06-19T17:17:22;26.20;62.60
36186;DHT22;22228;53.222;7.446;2023-06-19T17:19:45;26.80;73.20
36186;DHT22;22228;53.222;7.446;2023-06-19T17:22:05;27.20;13.90
36186;DHT22;22228;53.222;7.446;2023-06-19T17:24:26;27.80;20.60
36186;DHT22;22228;53.222;7.446;2023-06-19T17:26:46;28.50;1.00
36186;DHT22;22228;53.222;7.446;2023-06-19T17:29:07;28.80;13.00
36186;DHT22;22228;53.222;7.446;2023-06-19T17:31:27;29.20;53.70
36186;DHT22;22228;53.222;7.446;2023-06-19T17:33:48;28.90;7.30
36186;DHT22;22228;53.222;7.446;2023-06-19T17:36:09;28.60;1.00
36186;DHT22;22228;53.222;7.446;2023-06-19T17:38:30;28.10;1.00
36186;DHT22;22228;53.222;7.446;2023-06-19T17:40:51;27.70;9.30
36186;DHT22;22228;53.222;7.446;2023-06-19T17:43:11;27.10;61.60